createdAt,value
2022-11-14T06:50:09.162Z,5.70
2022-11-14T06:53:11.114Z,6.10
2022-11-14T06:56:15.080Z,6.40
2022-11-14T06:59:17.271Z,6.50
2022-11-14T07:02:21.838Z,6.40
2022-11-14T07:05:24.246Z,6.30
2022-11-14T07:08:26.678Z,6.30
2022-11-14T07:11:30.578Z,6.20
2022-11-14T07:14:32.649Z,6.10
2022-11-14T07:17:36.789Z,6.20
2022-11-14T07:20:38.773Z,6.20
2022-11-14T07:23:41.719Z,6.20
2022-11-14T07:26:43.523Z,6.30
2022-11-14T07:29:46.279Z,6.30
2022-11-14T07:32:55.273Z,6.50
2022-11-14T07:35:56.975Z,6.70
2022-11-14T07:38:58.912Z,6.80
2022-11-14T07:42:01.602Z,6.90
2022-11-14T07:45:03.694Z,7.10
2022-11-14T07:48:05.661Z,7.50
2022-11-14T07:51:11.171Z,7.60
2022-11-14T07:54:13.256Z,7.70
2022-11-14T07:57:15.101Z,7.80
2022-11-14T08:00:17.114Z,8.00
2022-11-14T08:03:19.326Z,8.20
2022-11-14T08:06:21.123Z,8.30
2022-11-14T08:09:23.336Z,8.40
2022-11-14T08:12:25.060Z,8.40
2022-11-14T08:15:27.364Z,8.70
2022-11-14T08:18:35.265Z,8.90
2022-11-14T08:21:37.361Z,9.00
2022-11-14T08:24:39.120Z,9.00
2022-11-14T08:27:41.021Z,9.10
2022-11-14T08:30:42.740Z,9.20
2022-11-14T08:33:45.043Z,9.20
2022-11-14T08:36:46.766Z,9.20
2022-11-14T08:39:48.521Z,9.20
2022-11-14T08:42:50.553Z,9.20
2022-11-14T08:45:52.647Z,9.10
2022-11-14T08:48:54.559Z,9.20
2022-11-14T08:51:56.730Z,9.10
2022-11-14T08:55:01.021Z,9.10
2022-11-14T08:58:03.165Z,9.10
2022-11-14T09:01:08.034Z,9.10
2022-11-14T09:04:14.047Z,9.10
2022-11-14T09:07:27.048Z,9.20
2022-11-14T09:10:29.836Z,9.30
2022-11-14T09:13:34.770Z,9.20
2022-11-14T09:16:37.591Z,9.20
2022-11-14T09:19:40.577Z,9.20
2022-11-14T09:22:42.990Z,9.20
2022-11-14T09:25:45.426Z,9.30
2022-11-14T09:28:48.578Z,9.20
2022-11-14T09:31:52.193Z,9.20
2022-11-14T09:34:54.292Z,9.20
2022-11-14T09:38:03.932Z,9.10
2022-11-14T09:41:09.389Z,9.00
2022-11-14T09:44:40.973Z,8.90
2022-11-14T09:47:49.949Z,9.00
2022-11-14T09:51:08.208Z,9.00
2022-11-14T09:54:25.262Z,9.00
2022-11-14T09:57:27.899Z,9.20
2022-11-14T10:00:57.537Z,9.20
2022-11-14T10:04:24.234Z,9.30
2022-11-14T10:07:59.328Z,9.30
2022-11-14T10:11:10.256Z,9.30
2022-11-14T10:14:52.052Z,9.40
2022-11-14T10:18:19.084Z,9.50
2022-11-14T10:21:46.602Z,9.70
2022-11-14T10:25:14.353Z,9.80
2022-11-14T10:28:33.347Z,9.90
2022-11-14T10:32:05.100Z,10.00
2022-11-14T10:35:35.848Z,10.00
2022-11-14T10:38:50.294Z,10.00
2022-11-14T10:42:00.928Z,10.10
2022-11-14T10:45:16.916Z,10.10
2022-11-14T10:48:27.339Z,10.10
2022-11-14T10:51:41.069Z,10.10
2022-11-14T10:55:03.273Z,10.20
2022-11-14T10:58:11.009Z,10.10
2022-11-14T11:01:37.610Z,10.20
2022-11-14T11:04:42.774Z,10.30
2022-11-14T11:08:42.175Z,10.40
2022-11-14T11:11:31.008Z,10.40
2022-11-14T11:14:33.808Z,10.40
2022-11-14T11:17:41.719Z,10.50
2022-11-14T11:20:44.883Z,10.50
2022-11-14T11:23:50.825Z,10.60
2022-11-14T11:27:22.840Z,10.70
2022-11-14T11:30:24.707Z,10.70
2022-11-14T11:33:30.602Z,10.80
2022-11-14T11:36:42.946Z,10.90
2022-11-14T11:39:55.754Z,10.90
2022-11-14T11:46:50.414Z,10.90
2022-11-14T11:49:54.788Z,10.90
2022-11-14T11:53:12.566Z,11.00
2022-11-14T11:56:21.229Z,11.00
2022-11-14T11:59:45.490Z,11.00
2022-11-14T12:02:50.469Z,11.20
2022-11-14T12:05:59.498Z,11.20
2022-11-14T12:09:07.809Z,11.30
2022-11-14T12:12:45.849Z,11.30
2022-11-14T12:16:18.802Z,11.50
2022-11-14T12:19:48.271Z,11.50
2022-11-14T12:23:19.027Z,11.50
2022-11-14T12:26:48.391Z,11.70
2022-11-14T12:30:16.891Z,11.80
2022-11-14T12:33:26.984Z,11.90
2022-11-14T12:36:31.859Z,12.00
2022-11-14T12:39:33.711Z,11.90
2022-11-14T12:42:35.944Z,11.80
2022-11-14T12:45:40.946Z,11.90
2022-11-14T12:48:44.700Z,12.00
2022-11-14T12:51:47.569Z,12.00
2022-11-14T12:54:49.442Z,12.10
2022-11-14T12:58:11.057Z,12.30
2022-11-14T13:01:31.387Z,12.30
2022-11-14T13:05:04.023Z,12.40
2022-11-14T13:08:33.755Z,12.50
2022-11-14T13:12:05.547Z,12.60
2022-11-14T13:15:49.733Z,12.50
2022-11-14T13:19:31.572Z,12.40
2022-11-14T13:22:39.785Z,12.50
2022-11-14T13:25:41.476Z,12.60
2022-11-14T13:28:50.123Z,12.80
2022-11-14T13:31:52.058Z,13.00
2022-11-14T13:35:01.976Z,13.00
2022-11-14T13:38:35.701Z,13.30
2022-11-14T13:42:09.528Z,13.40
2022-11-14T13:45:51.030Z,13.70
2022-11-14T13:49:08.229Z,13.60
2022-11-14T13:52:12.920Z,13.70
2022-11-14T13:55:27.605Z,13.80
2022-11-14T13:58:45.886Z,14.00
2022-11-14T14:02:21.036Z,13.90
2022-11-14T14:06:05.770Z,13.70
2022-11-14T14:09:35.502Z,13.60
2022-11-14T14:13:02.895Z,13.50
2022-11-14T14:16:12.910Z,13.40
2022-11-14T14:19:50.643Z,13.30
2022-11-14T14:23:13.058Z,13.20
2022-11-14T14:26:32.320Z,13.20
2022-11-14T14:30:13.858Z,13.10
2022-11-14T14:33:15.983Z,13.20
2022-11-14T14:36:20.564Z,13.20
2022-11-14T14:39:25.278Z,13.10
2022-11-14T14:42:46.566Z,13.10
2022-11-14T14:45:52.851Z,13.00
2022-11-14T14:48:54.690Z,12.90
2022-11-14T14:51:58.746Z,12.80
2022-11-14T14:55:03.005Z,12.70
2022-11-14T14:58:30.103Z,12.70
2022-11-14T15:01:35.512Z,12.70
2022-11-14T15:04:40.195Z,12.70
2022-11-14T15:07:41.945Z,12.80
2022-11-14T15:10:44.418Z,12.80
2022-11-14T15:13:48.009Z,12.80
2022-11-14T15:16:50.984Z,12.60
2022-11-14T15:19:53.984Z,12.50
2022-11-14T15:23:10.938Z,12.50
2022-11-14T15:26:16.701Z,12.30
2022-11-14T15:29:22.826Z,12.20
2022-11-14T15:32:25.875Z,12.10
2022-11-14T15:35:33.695Z,12.00
2022-11-14T15:38:44.672Z,11.90
2022-11-14T15:41:46.568Z,11.80
2022-11-14T15:44:49.043Z,11.80
2022-11-14T15:48:12.561Z,11.70
2022-11-14T15:51:14.316Z,11.60
2022-11-14T15:54:32.965Z,11.70
2022-11-14T15:57:36.143Z,11.60
2022-11-14T16:00:44.628Z,11.50
2022-11-14T16:03:48.489Z,11.50
2022-11-14T16:06:50.270Z,11.40
2022-11-14T16:09:52.044Z,11.40
2022-11-14T16:12:54.434Z,11.30
2022-11-14T16:15:56.192Z,11.30
2022-11-14T16:18:57.982Z,11.30
2022-11-14T16:22:02.852Z,11.20
2022-11-14T16:25:06.298Z,11.30
2022-11-14T16:28:07.940Z,11.20
2022-11-14T16:31:14.376Z,11.20
2022-11-14T16:34:19.891Z,11.20
2022-11-14T16:37:21.727Z,11.20
2022-11-14T16:40:27.775Z,11.10
2022-11-14T16:43:29.958Z,11.10
2022-11-14T16:46:32.139Z,11.10
2022-11-14T16:49:33.809Z,11.10
2022-11-14T16:52:37.219Z,11.10
2022-11-14T16:55:43.826Z,11.10
2022-11-14T16:58:45.481Z,11.20
